Terminal Aerodrome Forecast
Issued by NWS

Home | Current Version | Previous Version | Graphics & Text | Print | Product List | Glossary Off
Versions: 1 2 3 4 5 6 7 8 9 10 11 12 13 14 15 16 17 18 19 20 21 22 23 24 25 26 27 28 29 30 31 32 33

000
FTUS43 KLOT 272300
TAFORD
TAF
KORD 272332Z 2800/0106 27008KT P6SM SKC
     FM280100 VRB03KT P6SM SKC
     FM281600 18006KT P6SM SCT150
     FM010000 15006KT P6SM OVC050 PROB30 0102/0106 2SM -SN OVC025=

USA.gov is the U.S. government's official web portal to all federal, state and local government web resources and services.